Time;durP1;ratioP1;P1;durP2;ratioP2;P2;SDS_P1;SDS_P2;PMS_P1;PMS_P2;Temp;Humidity;BMP_temperature;BMP_pressure;BME280_temperature;BME280_humidity;BME280_pressure;Samples;Min_cycle;Max_cycle;Signal;HPM_P1;HPM_P2
2023/10/13 00:00:29;;;;;;;23.17;17.33;;;17.90;99.90;;;;;;5053731;28;20208;-81
2023/10/13 00:03:00;;;;;;;19.13;15.98;;;17.90;99.90;;;;;;5054852;28;20551;-81
2023/10/13 00:05:30;;;;;;;20.35;16.17;;;17.90;99.90;;;;;;5056814;28;20198;-81
2023/10/13 00:08:00;;;;;;;24.35;17.65;;;17.90;99.90;;;;;;5052779;28;20555;-81
2023/10/13 00:10:28;;;;;;;20.20;15.77;;;18.00;99.90;;;;;;5050774;28;20224;-81
2023/10/13 00:13:06;;;;;;;21.67;17.05;;;17.90;99.90;;;;;;5047224;28;20207;-81
2023/10/13 00:15:38;;;;;;;26.27;19.52;;;18.00;99.90;;;;;;5050609;28;20210;-81
2023/10/13 00:18:12;;;;;;;22.88;17.10;;;18.00;99.90;;;;;;5053827;28;20213;-81
2023/10/13 00:20:46;;;;;;;24.48;17.73;;;18.00;99.90;;;;;;5055634;28;20561;-81
2023/10/13 00:23:14;;;;;;;23.55;18.40;;;18.00;99.90;;;;;;5054526;28;20214;-81
2023/10/13 00:25:49;;;;;;;23.23;17.15;;;18.00;99.90;;;;;;5055831;28;20198;-81
2023/10/13 00:28:24;;;;;;;22.23;16.77;;;18.00;99.90;;;;;;5056268;28;20202;-81
2023/10/13 00:30:59;;;;;;;25.52;18.20;;;18.00;99.90;;;;;;5055316;28;20198;-81
2023/10/13 00:33:31;;;;;;;26.75;17.02;;;17.90;99.90;;;;;;5052789;28;20587;-81
2023/10/13 00:36:00;;;;;;;22.05;16.13;;;18.00;99.90;;;;;;5049425;28;20221;-81
2023/10/13 00:38:28;;;;;;;20.98;16.55;;;18.00;99.90;;;;;;5051234;28;20205;-81
2023/10/13 00:41:03;;;;;;;18.23;15.40;;;18.00;99.90;;;;;;5069024;28;20214;-82
2023/10/13 00:43:34;;;;;;;19.77;15.30;;;18.00;99.90;;;;;;5049864;28;20222;-81
2023/10/13 00:46:12;;;;;;;17.92;14.40;;;18.00;99.90;;;;;;5045201;28;20199;-81
2023/10/13 00:48:51;;;;;;;20.90;14.77;;;18.00;99.90;;;;;;5048496;28;20198;-81
2023/10/13 00:51:32;;;;;;;15.43;13.80;;;18.00;99.90;;;;;;5056077;28;20202;-81
2023/10/13 00:54:02;;;;;;;20.42;16.48;;;18.00;99.90;;;;;;5054628;28;20229;-81
2023/10/13 00:56:30;;;;;;;21.00;16.17;;;18.00;99.90;;;;;;5048913;28;20192;-81
2023/10/13 00:59:02;;;;;;;22.50;15.77;;;18.00;99.90;;;;;;5055429;28;20206;-81
2023/10/13 01:01:32;;;;;;;22.35;17.05;;;18.00;99.90;;;;;;5054554;28;20594;-81
2023/10/13 01:04:02;;;;;;;18.42;15.85;;;18.00;99.90;;;;;;5050006;28;20229;-81
2023/10/13 01:06:29;;;;;;;20.75;14.38;;;18.00;99.90;;;;;;5060292;28;20556;-81
2023/10/13 01:09:10;;;;;;;20.75;15.30;;;18.10;99.90;;;;;;5053053;28;20205;-82
2023/10/13 01:11:38;;;;;;;22.00;15.98;;;18.00;99.90;;;;;;5056299;28;20214;-82
2023/10/13 01:14:06;;;;;;;20.73;17.63;;;18.00;99.90;;;;;;5052262;28;20692;-81
2023/10/13 01:16:35;;;;;;;22.38;17.75;;;18.10;99.90;;;;;;5050715;28;20198;-81
2023/10/13 01:19:05;;;;;;;22.92;16.50;;;18.10;99.90;;;;;;5051930;28;20654;-81
2023/10/13 01:21:33;;;;;;;26.15;19.35;;;18.20;99.90;;;;;;5050047;28;20203;-81
2023/10/13 01:24:07;;;;;;;22.67;17.63;;;18.20;99.90;;;;;;5051822;28;20214;-81
2023/10/13 01:26:38;;;;;;;15.88;12.48;;;18.20;99.90;;;;;;5055405;28;20208;-82
2023/10/13 01:29:14;;;;;;;16.52;11.20;;;18.20;99.90;;;;;;5055384;28;20193;-81
2023/10/13 01:31:45;;;;;;;18.00;13.27;;;18.20;99.90;;;;;;5047810;28;20186;-81
2023/10/13 01:34:19;;;;;;;18.38;11.95;;;18.20;99.90;;;;;;5048073;28;20214;-81
2023/10/13 01:36:50;;;;;;;15.50;11.15;;;18.30;99.90;;;;;;5053431;28;20202;-81
2023/10/13 01:39:21;;;;;;;15.25;10.77;;;18.20;99.90;;;;;;5053683;28;20203;-81
2023/10/13 01:41:55;;;;;;;15.00;10.43;;;18.30;99.90;;;;;;5049091;28;20210;-81
2023/10/13 01:44:22;;;;;;;13.77;10.07;;;18.20;99.90;;;;;;5061216;28;20210;-81
2023/10/13 01:46:49;;;;;;;13.98;9.95;;;18.20;99.90;;;;;;5060352;28;20201;-81
2023/10/13 01:49:16;;;;;;;15.00;10.40;;;18.20;99.90;;;;;;5057312;28;20198;-81
2023/10/13 01:51:43;;;;;;;14.13;9.88;;;18.20;99.90;;;;;;5055157;28;20194;-82
2023/10/13 01:54:12;;;;;;;13.18;10.05;;;18.20;99.90;;;;;;5062445;28;20226;-81
2023/10/13 01:56:42;;;;;;;11.98;10.75;;;18.20;99.90;;;;;;5068429;28;20193;-81
2023/10/13 01:59:11;;;;;;;10.52;9.30;;;18.20;99.90;;;;;;5069057;28;20198;-82
2023/10/13 02:01:38;;;;;;;15.10;10.10;;;18.20;99.90;;;;;;5069670;28;20198;-81
2023/10/13 02:04:06;;;;;;;11.82;9.98;;;18.20;99.90;;;;;;5062853;28;20225;-81
2023/10/13 02:06:34;;;;;;;12.40;9.32;;;18.20;99.90;;;;;;5064702;28;20206;-81
2023/10/13 02:09:10;;;;;;;12.27;9.20;;;18.20;99.90;;;;;;5063830;28;20191;-81
2023/10/13 02:11:39;;;;;;;11.65;9.52;;;18.20;99.90;;;;;;5059691;28;20206;-81
2023/10/13 02:14:07;;;;;;;14.57;9.88;;;18.20;99.90;;;;;;5051340;28;20217;-81
2023/10/13 02:16:36;;;;;;;11.35;9.18;;;18.20;99.90;;;;;;5051287;28;20590;-81
2023/10/13 02:19:04;;;;;;;13.43;10.48;;;18.30;99.90;;;;;;5047512;28;20207;-81
2023/10/13 02:21:31;;;;;;;13.80;9.93;;;18.20;99.90;;;;;;5051352;28;20195;-81
2023/10/13 02:24:03;;;;;;;12.70;9.85;;;18.20;99.90;;;;;;5051508;28;20216;-82
2023/10/13 02:26:30;;;;;;;12.95;9.80;;;18.20;99.90;;;;;;5052743;28;20209;-81
2023/10/13 02:29:04;;;;;;;16.00;10.68;;;18.20;99.90;;;;;;5049892;28;20194;-81
2023/10/13 02:31:30;;;;;;;15.70;9.75;;;18.20;99.90;;;;;;5053531;28;20198;-81
2023/10/13 02:34:00;;;;;;;12.35;10.40;;;18.20;99.90;;;;;;5054000;28;20226;-81
2023/10/13 02:36:36;;;;;;;13.93;10.93;;;18.20;99.90;;;;;;5049924;28;20231;-81
2023/10/13 02:39:07;;;;;;;13.25;10.75;;;18.20;99.90;;;;;;5052206;28;20194;-81
2023/10/13 02:41:36;;;;;;;14.32;10.45;;;18.20;99.90;;;;;;5049713;28;20206;-81
2023/10/13 02:44:08;;;;;;;13.50;10.57;;;18.20;99.90;;;;;;5051443;28;20210;-81
2023/10/13 02:46:36;;;;;;;12.90;9.57;;;18.20;99.90;;;;;;5051870;28;20217;-81
2023/10/13 02:49:10;;;;;;;11.60;10.40;;;18.20;99.90;;;;;;5050796;28;20198;-81
2023/10/13 02:51:36;;;;;;;13.43;9.95;;;18.20;99.90;;;;;;5048022;28;20213;-81
2023/10/13 02:54:10;;;;;;;14.40;10.85;;;18.10;99.90;;;;;;5053432;28;20233;-81
2023/10/13 02:56:37;;;;;;;11.45;9.38;;;18.10;99.90;;;;;;5051428;28;20213;-81
2023/10/13 02:59:06;;;;;;;12.65;10.05;;;18.10;99.90;;;;;;5053712;28;20197;-81
2023/10/13 03:01:34;;;;;;;13.32;9.50;;;18.10;99.90;;;;;;5052671;28;20199;-81
2023/10/13 03:04:03;;;;;;;12.75;9.60;;;18.10;99.90;;;;;;5044917;28;20226;-82
2023/10/13 03:06:32;;;;;;;12.07;9.30;;;18.10;99.90;;;;;;5045805;28;20202;-81
2023/10/13 03:09:13;;;;;;;14.40;9.77;;;18.10;99.90;;;;;;5053357;28;20185;-82
2023/10/13 03:11:48;;;;;;;11.80;9.75;;;18.10;99.90;;;;;;5045688;28;20199;-81
2023/10/13 03:14:30;;;;;;;10.15;9.07;;;18.00;99.90;;;;;;5050598;28;20229;-81
2023/10/13 03:17:02;;;;;;;10.88;9.05;;;18.10;99.90;;;;;;5050760;28;20672;-81
2023/10/13 03:19:32;;;;;;;10.95;9.60;;;18.00;99.90;;;;;;5044180;28;20639;-81
2023/10/13 03:22:07;;;;;;;11.23;9.73;;;18.00;99.90;;;;;;5049403;28;20206;-81
2023/10/13 03:24:34;;;;;;;14.80;9.98;;;18.00;99.90;;;;;;5052183;28;20214;-81
2023/10/13 03:27:09;;;;;;;13.98;9.80;;;18.00;99.90;;;;;;5045377;28;20210;-82
2023/10/13 03:29:42;;;;;;;11.35;9.48;;;18.00;99.90;;;;;;5044882;28;20194;-81
2023/10/13 03:32:12;;;;;;;17.10;10.68;;;18.00;99.90;;;;;;5051461;28;20196;-81
2023/10/13 03:34:53;;;;;;;13.57;9.95;;;18.00;99.90;;;;;;5047033;28;20233;-81
2023/10/13 03:37:37;;;;;;;11.20;9.95;;;18.00;99.90;;;;;;5054745;28;20203;-81
2023/10/13 03:40:08;;;;;;;12.75;10.05;;;18.00;99.90;;;;;;5052886;28;20207;-81
2023/10/13 03:42:39;;;;;;;14.77;10.75;;;17.90;99.90;;;;;;5052216;28;20197;-80
2023/10/13 03:45:10;;;;;;;12.35;10.57;;;17.90;99.90;;;;;;5069406;28;20225;-81
2023/10/13 03:47:38;;;;;;;15.38;11.27;;;17.90;99.90;;;;;;5054482;28;20198;-81
2023/10/13 03:50:16;;;;;;;15.02;10.57;;;17.90;99.90;;;;;;5050790;28;20202;-81
2023/10/13 03:52:44;;;;;;;15.60;11.30;;;17.80;99.90;;;;;;5048164;28;20702;-81
2023/10/13 03:55:17;;;;;;;12.63;10.63;;;17.80;99.90;;;;;;5065428;22;20225;-79
2023/10/13 03:57:50;;;;;;;11.50;10.30;;;17.80;99.90;;;;;;5084543;28;20209;-80
2023/10/13 04:00:24;;;;;;;12.32;10.63;;;17.80;99.90;;;;;;5063034;28;20197;-79
2023/10/13 04:03:04;;;;;;;16.30;10.93;;;17.80;99.90;;;;;;5065574;28;20206;-79
2023/10/13 04:05:38;;;;;;;15.25;11.15;;;17.80;99.90;;;;;;5080182;28;20230;-79
2023/10/13 04:16:37;;;;;;;14.93;11.13;;;17.70;99.90;;;;;;5050916;28;20225;-80
2023/10/13 04:20:12;;;;;;;12.95;10.80;;;17.70;99.90;;;;;;5045549;28;20199;-80
2023/10/13 04:28:33;;;;;;;11.95;10.65;;;17.80;99.90;;;;;;5051005;28;20207;-79
2023/10/13 04:31:11;;;;;;;10.45;9.43;;;17.70;99.90;;;;;;5071047;28;20198;-81
2023/10/13 04:36:45;;;;;;;13.48;10.18;;;17.80;99.90;;;;;;5061933;28;20222;-80
2023/10/13 04:39:16;;;;;;;12.27;10.43;;;17.80;99.90;;;;;;5067268;28;20202;-79
2023/10/13 04:41:57;;;;;;;12.55;9.77;;;17.80;99.90;;;;;;5057546;28;20567;-80
2023/10/13 04:47:21;;;;;;;12.25;9.65;;;17.80;99.90;;;;;;5052468;28;20205;-80
2023/10/13 04:49:52;;;;;;;12.02;9.85;;;17.80;99.90;;;;;;5052868;28;20556;-79
2023/10/13 04:55:43;;;;;;;11.55;10.07;;;17.90;99.90;;;;;;5052453;28;20218;-84
2023/10/13 04:58:27;;;;;;;11.63;9.75;;;17.90;99.90;;;;;;5051642;28;20205;-80
2023/10/13 05:01:23;;;;;;;11.57;9.68;;;17.90;99.90;;;;;;5048740;28;20205;-80
2023/10/13 05:04:21;;;;;;;12.35;9.80;;;17.90;99.90;;;;;;5057505;28;20196;-80
2023/10/13 05:45:22;;;;;;;14.38;10.38;;;18.10;99.90;;;;;;5050410;28;20190;-79
2023/10/13 05:48:15;;;;;;;12.57;11.15;;;18.00;99.90;;;;;;5049572;28;20205;-79
2023/10/13 05:51:32;;;;;;;12.80;10.00;;;18.10;99.90;;;;;;5049954;28;20190;-79
2023/10/13 06:30:19;;;;;;;10.23;7.93;;;18.20;99.90;;;;;;5063748;28;20672;-79
2023/10/13 06:32:50;;;;;;;8.80;7.75;;;18.30;99.90;;;;;;5059045;28;20201;-80
2023/10/13 06:35:22;;;;;;;12.98;7.88;;;18.30;99.90;;;;;;5045530;28;20230;-79
2023/10/13 06:37:50;;;;;;;11.23;6.97;;;18.30;99.90;;;;;;5043947;28;20194;-81
2023/10/13 06:40:34;;;;;;;10.07;7.50;;;18.30;99.90;;;;;;5052139;28;20194;-80
2023/10/13 06:43:16;;;;;;;11.27;7.10;;;18.30;99.90;;;;;;5063987;28;20198;-79
2023/10/13 06:45:50;;;;;;;11.70;6.70;;;18.30;99.90;;;;;;5049522;28;20229;-80
2023/10/13 06:48:19;;;;;;;15.35;7.30;;;18.40;99.90;;;;;;5050328;28;20671;-79
2023/10/13 06:50:52;;;;;;;10.25;7.28;;;18.40;99.90;;;;;;5044632;28;20194;-81
2023/10/13 06:53:37;;;;;;;13.43;6.90;;;18.40;99.90;;;;;;5050339;28;20213;-80
2023/10/13 06:56:09;;;;;;;10.15;7.15;;;18.40;99.90;;;;;;5052008;28;20239;-80
2023/10/13 06:58:46;;;;;;;9.75;6.38;;;18.40;99.90;;;;;;5064021;28;20194;-78
2023/10/13 07:01:21;;;;;;;13.80;7.28;;;18.40;99.90;;;;;;5049994;28;20209;-79
2023/10/13 07:03:53;;;;;;;8.10;6.22;;;18.40;99.90;;;;;;5065797;28;20194;-79
2023/10/13 07:06:20;;;;;;;12.85;7.05;;;18.40;99.90;;;;;;5044324;28;20222;-79
2023/10/13 07:08:51;;;;;;;10.45;7.30;;;18.40;99.90;;;;;;5040555;28;20659;-79
2023/10/13 07:11:32;;;;;;;12.20;7.18;;;18.40;99.90;;;;;;5059307;28;20203;-79
2023/10/13 07:14:09;;;;;;;13.35;7.32;;;18.50;99.90;;;;;;5048857;28;20214;-79
2023/10/13 07:16:46;;;;;;;9.57;6.80;;;18.50;99.90;;;;;;5049776;28;20280;-79
2023/10/13 07:19:17;;;;;;;15.00;7.70;;;18.50;99.90;;;;;;5055512;28;20203;-79
2023/10/13 07:21:45;;;;;;;12.65;8.63;;;18.50;99.90;;;;;;5047067;28;20194;-79
2023/10/13 07:24:13;;;;;;;12.38;7.22;;;18.60;99.90;;;;;;5056920;28;20663;-79
2023/10/13 07:26:45;;;;;;;14.02;8.18;;;18.60;99.90;;;;;;5051323;28;20218;-79
2023/10/13 07:29:14;;;;;;;15.00;8.45;;;18.60;99.90;;;;;;5054398;28;20198;-79
2023/10/13 07:31:44;;;;;;;10.98;8.23;;;18.70;99.90;;;;;;5071040;28;20201;-79
2023/10/13 07:34:16;;;;;;;11.27;7.47;;;18.70;99.90;;;;;;5054698;28;20206;-79
2023/10/13 07:36:59;;;;;;;13.50;8.00;;;18.70;99.90;;;;;;5048811;28;20709;-79
2023/10/13 07:39:33;;;;;;;9.93;7.88;;;18.70;99.90;;;;;;5061547;28;20206;-79
2023/10/13 07:42:08;;;;;;;12.77;8.43;;;18.80;99.90;;;;;;5053086;28;20205;-78
2023/10/13 07:44:36;;;;;;;15.02;8.40;;;18.80;99.90;;;;;;5052241;28;20205;-79
2023/10/13 07:47:07;;;;;;;9.25;7.40;;;18.80;99.90;;;;;;5051260;28;20610;-79
2023/10/13 07:49:37;;;;;;;13.35;7.97;;;18.80;99.90;;;;;;5072821;28;20209;-79
2023/10/13 07:52:23;;;;;;;11.55;8.52;;;18.80;99.90;;;;;;5058256;28;20211;-78
2023/10/13 07:54:59;;;;;;;13.43;8.10;;;18.90;99.90;;;;;;5047899;28;20218;-79
2023/10/13 07:57:29;;;;;;;9.75;7.30;;;18.90;99.90;;;;;;5064103;28;20217;-79
2023/10/13 08:00:10;;;;;;;11.02;7.35;;;18.90;99.90;;;;;;5061284;28;20210;-79
2023/10/13 08:03:07;;;;;;;13.27;7.97;;;18.90;99.90;;;;;;5057791;28;20210;-79
2023/10/13 08:05:42;;;;;;;12.18;7.68;;;19.00;99.90;;;;;;5047993;28;20202;-79
2023/10/13 08:08:14;;;;;;;15.23;6.80;;;19.00;99.90;;;;;;5048752;28;20200;-78
2023/10/13 08:10:45;;;;;;;14.13;6.97;;;19.00;99.90;;;;;;5065807;28;20202;-78
2023/10/13 08:13:13;;;;;;;14.00;6.82;;;19.10;99.90;;;;;;5047830;28;20559;-79
2023/10/13 08:15:52;;;;;;;12.98;7.47;;;19.10;99.90;;;;;;5051750;28;20230;-79
2023/10/13 08:18:29;;;;;;;11.25;6.50;;;19.20;99.90;;;;;;5056845;28;20201;-79
2023/10/13 08:21:03;;;;;;;10.70;6.70;;;19.30;99.90;;;;;;5054054;28;20635;-79
2023/10/13 08:23:57;;;;;;;11.27;5.93;;;19.40;99.90;;;;;;5052575;28;20544;-79
2023/10/13 08:32:19;;;;;;;10.73;7.30;;;19.60;99.90;;;;;;5054841;28;20196;-78
2023/10/13 08:35:09;;;;;;;10.90;6.22;;;19.70;99.90;;;;;;5054933;28;20206;-79
2023/10/13 08:37:59;;;;;;;11.10;6.05;;;19.70;99.90;;;;;;5070445;28;20213;-79
2023/10/13 08:41:25;;;;;;;12.07;6.07;;;19.80;99.90;;;;;;5058282;28;20194;-79
2023/10/13 08:43:43;;;;;;;15.15;6.45;;;19.80;99.90;;;;;;5061825;28;20205;-79
2023/10/13 08:46:24;;;;;;;13.23;5.88;;;19.90;99.90;;;;;;5049446;28;20221;-79
2023/10/13 08:49:04;;;;;;;11.70;6.25;;;20.00;99.90;;;;;;5053859;28;20186;-81
2023/10/13 08:51:44;;;;;;;14.00;6.18;;;20.00;99.90;;;;;;5050481;28;20655;-77
2023/10/13 08:54:34;;;;;;;11.27;5.78;;;20.10;99.90;;;;;;5067105;28;20216;-78
2023/10/13 08:57:32;;;;;;;10.95;5.72;;;20.10;99.90;;;;;;5046040;28;20300;-78
2023/10/13 09:00:26;;;;;;;10.95;6.03;;;20.10;99.90;;;;;;5042464;28;20194;-78
2023/10/13 09:03:07;;;;;;;10.82;5.57;;;20.30;99.90;;;;;;5056550;28;20203;-76
2023/10/13 09:05:41;;;;;;;9.55;5.88;;;20.40;99.90;;;;;;5052573;28;20225;-79
2023/10/13 09:08:09;;;;;;;12.10;5.75;;;20.50;99.90;;;;;;5049789;28;20228;-77
2023/10/13 09:10:55;;;;;;;10.82;5.70;;;20.60;99.90;;;;;;5049470;28;20202;-77
2023/10/13 09:13:43;;;;;;;10.10;5.43;;;20.60;55.70;;;;;;5043655;28;20210;-77
2023/10/13 09:16:17;;;;;;;10.63;5.80;;;20.60;99.90;;;;;;5045758;28;20218;-77
2023/10/13 09:18:46;;;;;;;10.15;5.53;;;20.70;94.90;;;;;;5045309;28;20194;-78
2023/10/13 09:24:21;;;;;;;8.90;5.72;;;20.90;99.90;;;;;;5049947;28;20195;-78
2023/10/13 09:27:04;;;;;;;10.40;6.18;;;21.00;99.90;;;;;;5055880;28;20209;-78
2023/10/13 09:29:38;;;;;;;11.07;5.15;;;21.10;1.00;;;;;;5049376;28;20203;-78
2023/10/13 09:32:11;;;;;;;9.20;5.10;;;21.20;1.00;;;;;;5066092;28;20591;-80
2023/10/13 09:34:44;;;;;;;13.43;6.25;;;21.20;1.00;;;;;;5063382;28;20202;-80
2023/10/13 09:37:15;;;;;;;9.55;5.25;;;21.30;1.00;;;;;;5050504;28;20209;-79
2023/10/13 09:39:52;;;;;;;11.70;5.55;;;21.40;99.90;;;;;;5066401;28;20210;-79
2023/10/13 09:42:23;;;;;;;13.15;6.40;;;21.50;45.80;;;;;;5050872;28;20197;-79
2023/10/13 09:44:55;;;;;;;11.95;5.80;;;21.70;99.90;;;;;;5049070;28;20201;-79
2023/10/13 09:47:29;;;;;;;9.32;4.90;;;21.60;99.90;;;;;;5055030;28;20198;-79
2023/10/13 09:50:05;;;;;;;9.77;5.45;;;21.60;1.00;;;;;;5060766;28;20209;-79
2023/10/13 09:52:33;;;;;;;11.32;5.20;;;21.70;99.90;;;;;;5060710;28;20221;-79
2023/10/13 09:55:11;;;;;;;9.20;5.47;;;21.80;99.90;;;;;;5054463;28;20230;-79
2023/10/13 09:57:48;;;;;;;10.63;5.40;;;21.90;99.90;;;;;;5052591;28;20202;-79
2023/10/13 10:03:29;;;;;;;12.32;5.72;;;22.10;99.90;;;;;;5035810;28;20198;-78
2023/10/13 10:06:03;;;;;;;10.65;5.93;;;22.10;1.00;;;;;;5047242;28;20210;-79
2023/10/13 10:08:34;;;;;;;11.27;5.55;;;22.10;1.00;;;;;;5069289;28;20202;-79
2023/10/13 10:11:16;;;;;;;11.35;6.30;;;22.10;99.90;;;;;;5051901;28;20206;-79
2023/10/13 10:13:57;;;;;;;10.32;6.15;;;22.30;1.00;;;;;;5079332;28;20193;-79
2023/10/13 10:16:37;;;;;;;11.90;5.53;;;22.30;1.00;;;;;;5054482;28;20221;-78
2023/10/13 10:19:07;;;;;;;10.95;6.05;;;22.20;1.00;;;;;;5052922;28;20190;-79
2023/10/13 10:21:36;;;;;;;9.95;5.30;;;22.30;1.00;;;;;;5047625;28;20214;-80
2023/10/13 10:24:14;;;;;;;11.15;5.97;;;22.40;1.00;;;;;;5060074;28;20206;-79
2023/10/13 10:26:52;;;;;;;10.02;5.85;;;22.40;99.90;;;;;;5051636;28;20236;-80
2023/10/13 10:29:20;;;;;;;10.27;5.82;;;22.50;70.80;;;;;;5053742;28;20198;-80
2023/10/13 10:31:49;;;;;;;10.27;5.70;;;22.40;1.00;;;;;;5052390;28;20682;-80
2023/10/13 10:34:19;;;;;;;9.15;6.03;;;22.40;1.00;;;;;;5051174;28;20191;-80
2023/10/13 10:36:51;;;;;;;11.10;6.65;;;22.30;83.80;;;;;;5049769;28;20214;-80
2023/10/13 10:39:19;;;;;;;10.95;6.53;;;22.20;99.90;;;;;;5067937;28;20568;-79
2023/10/13 10:41:51;;;;;;;11.55;5.75;;;22.20;99.90;;;;;;5066210;28;20208;-79
2023/10/13 10:44:33;;;;;;;9.38;5.70;;;22.20;99.90;;;;;;5063171;28;20218;-80
2023/10/13 10:47:19;;;;;;;9.55;6.50;;;22.20;99.90;;;;;;5057435;28;20235;-77
2023/10/13 10:49:47;;;;;;;11.32;6.10;;;22.20;1.00;;;;;;5052895;28;20220;-77
2023/10/13 10:52:19;;;;;;;13.40;6.07;;;22.20;99.90;;;;;;5050257;28;20201;-77
2023/10/13 10:54:51;;;;;;;11.13;6.43;;;22.10;1.00;;;;;;5065525;28;20213;-77
2023/10/13 10:57:19;;;;;;;9.75;5.68;;;22.10;99.90;;;;;;5056528;28;20248;-80
2023/10/13 10:59:47;;;;;;;10.98;6.55;;;22.10;99.90;;;;;;5052710;28;20202;-80
2023/10/13 11:02:31;;;;;;;12.43;7.05;;;22.00;1.00;;;;;;5067775;28;20205;-80
2023/10/13 11:04:59;;;;;;;10.63;6.95;;;22.10;99.90;;;;;;5070045;28;20214;-80
2023/10/13 11:07:27;;;;;;;10.05;6.82;;;22.20;99.90;;;;;;5051366;28;20199;-79
2023/10/13 11:10:12;;;;;;;9.88;6.50;;;22.40;1.00;;;;;;5050572;28;20197;-80
2023/10/13 11:12:40;;;;;;;11.30;6.15;;;22.40;99.90;;;;;;5052989;28;20206;-79
2023/10/13 11:15:14;;;;;;;8.68;7.07;;;22.40;99.90;;;;;;5052568;28;20221;-79
2023/10/13 11:17:48;;;;;;;9.95;6.72;;;22.40;19.00;;;;;;5050451;28;20665;-81
2023/10/13 11:20:25;;;;;;;10.10;6.88;;;22.40;1.00;;;;;;5066569;28;20553;-79
2023/10/13 11:22:53;;;;;;;11.13;7.13;;;22.40;99.90;;;;;;5051285;28;20212;-78
2023/10/13 11:25:29;;;;;;;9.98;6.95;;;22.40;99.90;;;;;;5054728;28;20218;-79
2023/10/13 11:27:59;;;;;;;14.98;7.03;;;22.50;99.90;;;;;;5060994;28;20217;-79
2023/10/13 11:30:40;;;;;;;12.07;7.28;;;22.40;99.90;;;;;;5062489;28;20695;-79
2023/10/13 11:33:11;;;;;;;14.90;6.88;;;22.40;99.90;;;;;;5068872;28;20202;-79
2023/10/13 11:35:56;;;;;;;11.32;7.35;;;22.50;99.90;;;;;;5047447;28;20214;-78
2023/10/13 11:38:27;;;;;;;13.40;6.40;;;22.50;99.90;;;;;;5065913;28;20195;-80
2023/10/13 11:41:15;;;;;;;14.20;7.95;;;22.70;1.00;;;;;;5066624;28;20195;-79
2023/10/13 11:44:05;;;;;;;13.07;7.80;;;22.80;1.00;;;;;;5060302;28;20217;-78
2023/10/13 11:49:31;;;;;;;12.25;7.93;;;23.30;1.00;;;;;;5052822;28;20194;-79
2023/10/13 11:52:10;;;;;;;12.25;6.82;;;23.50;1.00;;;;;;5049842;28;20201;-80
2023/10/13 11:54:41;;;;;;;12.68;8.02;;;23.70;99.90;;;;;;5052323;28;20205;-80
2023/10/13 11:57:10;;;;;;;9.98;6.60;;;24.10;99.90;;;;;;5060938;28;20223;-79
2023/10/13 11:59:45;;;;;;;11.52;7.10;;;24.10;99.90;;;;;;5060703;28;20198;-79
2023/10/13 12:04:59;;;;;;;9.10;6.60;;;24.20;99.90;;;;;;5037007;28;20197;-79
2023/10/13 12:07:45;;;;;;;13.65;6.95;;;24.50;44.60;;;;;;5049050;28;20197;-78
2023/10/13 12:10:20;;;;;;;16.17;7.22;;;24.60;16.60;;;;;;5046064;28;20726;-78
2023/10/13 12:12:53;;;;;;;13.07;6.40;;;24.60;1.00;;;;;;5060574;28;20206;-78
2023/10/13 12:15:34;;;;;;;14.13;6.72;;;24.80;1.00;;;;;;5041818;28;20698;-78
2023/10/13 12:18:03;;;;;;;11.82;6.20;;;24.90;1.00;;;;;;5057669;28;20222;-79
2023/10/13 12:20:35;;;;;;;11.70;7.13;;;25.20;1.00;;;;;;5050600;28;20671;-78
2023/10/13 12:23:17;;;;;;;12.98;6.97;;;25.40;1.00;;;;;;5067017;28;20226;-78
2023/10/13 12:26:00;;;;;;;12.88;6.65;;;25.30;1.00;;;;;;5037712;28;20222;-78
2023/10/13 12:28:28;;;;;;;11.13;6.45;;;25.20;1.00;;;;;;5044287;28;20210;-78
2023/10/13 12:30:58;;;;;;;14.35;6.90;;;25.00;1.00;;;;;;5057145;28;20222;-78
2023/10/13 12:33:27;;;;;;;10.98;6.18;;;25.20;1.00;;;;;;5054878;28;20201;-78
2023/10/13 12:36:06;;;;;;;15.60;7.22;;;25.20;1.00;;;;;;5049908;28;20219;-78
2023/10/13 12:38:50;;;;;;;13.52;6.07;;;25.20;1.00;;;;;;5043288;28;20199;-78
2023/10/13 12:52:26;;;;;;;12.80;5.55;;;25.10;1.00;;;;;;5034244;28;20190;-78
2023/10/13 12:55:06;;;;;;;11.95;6.63;;;25.00;1.00;;;;;;5053661;28;20202;-78
2023/10/13 12:57:41;;;;;;;13.45;6.38;;;24.90;1.00;;;;;;5040338;28;20222;-78
2023/10/13 13:00:24;;;;;;;14.00;6.97;;;24.70;1.00;;;;;;5044151;28;20665;-78
2023/10/13 13:02:55;;;;;;;11.00;5.80;;;24.50;1.00;;;;;;5041326;28;20198;-78
2023/10/13 13:05:28;;;;;;;14.43;7.13;;;24.30;1.00;;;;;;5057902;28;20222;-78
2023/10/13 13:07:57;;;;;;;16.20;5.90;;;24.40;1.00;;;;;;5052861;28;20202;-78
2023/10/13 13:10:35;;;;;;;11.60;5.95;;;24.30;1.00;;;;;;5057062;28;20316;-78
2023/10/13 13:13:05;;;;;;;14.02;6.68;;;24.30;1.00;;;;;;5043841;28;20217;-78
2023/10/13 13:15:32;;;;;;;15.43;6.57;;;24.10;1.00;;;;;;5043384;28;20226;-78
2023/10/13 13:18:09;;;;;;;11.82;6.43;;;24.20;1.00;;;;;;5048314;28;20222;-78
2023/10/13 13:20:39;;;;;;;9.50;5.95;;;24.30;1.00;;;;;;5044661;28;20202;-78
2023/10/13 13:23:11;;;;;;;14.95;6.32;;;24.20;1.00;;;;;;5051141;28;20202;-78
2023/10/13 13:25:42;;;;;;;15.15;6.85;;;24.20;1.00;;;;;;5065399;28;20221;-78
2023/10/13 13:28:11;;;;;;;13.77;6.15;;;24.20;1.00;;;;;;5042483;28;20201;-78
2023/10/13 13:30:38;;;;;;;16.38;6.55;;;24.20;1.00;;;;;;5061103;28;20203;-77
2023/10/13 13:33:11;;;;;;;8.95;6.10;;;24.20;1.00;;;;;;5050201;28;20199;-78
2023/10/13 13:35:39;;;;;;;15.07;6.45;;;24.30;1.00;;;;;;5049003;28;20214;-77
2023/10/13 13:38:16;;;;;;;12.18;7.28;;;24.70;1.00;;;;;;5059376;28;20211;-78
2023/10/13 13:40:48;;;;;;;16.13;6.95;;;25.00;1.00;;;;;;5048731;28;20194;-78
2023/10/13 13:43:31;;;;;;;11.13;6.03;;;25.10;1.00;;;;;;5056113;28;20209;-78
2023/10/13 13:46:10;;;;;;;14.90;6.47;;;24.90;1.00;;;;;;5067624;28;20218;-78
2023/10/13 13:48:37;;;;;;;16.77;6.65;;;24.60;1.00;;;;;;5060252;28;20205;-79
2023/10/13 13:51:12;;;;;;;12.27;6.03;;;24.50;1.00;;;;;;5063364;28;20699;-79
2023/10/13 13:53:50;;;;;;;16.15;6.28;;;24.30;1.00;;;;;;5055984;28;20197;-79
2023/10/13 13:56:18;;;;;;;12.82;6.35;;;24.30;1.00;;;;;;5062851;28;20679;-78
2023/10/13 13:58:46;;;;;;;18.98;6.80;;;24.20;1.00;;;;;;5054913;28;20225;-79
2023/10/13 14:01:15;;;;;;;18.20;6.78;;;24.10;1.00;;;;;;5057869;28;20221;-79
2023/10/13 14:03:46;;;;;;;13.73;6.60;;;24.20;1.00;;;;;;5052997;28;20202;-78
2023/10/13 14:06:18;;;;;;;14.77;6.35;;;24.10;1.00;;;;;;5065256;28;20214;-79
2023/10/13 14:08:48;;;;;;;14.02;5.90;;;24.00;1.00;;;;;;5045168;28;20182;-79
2023/10/13 14:14:28;;;;;;;13.55;5.78;;;24.10;1.00;;;;;;5069259;28;20198;-79
2023/10/13 14:17:03;;;;;;;17.10;6.53;;;24.10;1.00;;;;;;5055979;28;20223;-80
2023/10/13 14:19:32;;;;;;;14.63;7.13;;;24.20;1.00;;;;;;5058453;28;20212;-81
2023/10/13 14:22:06;;;;;;;20.08;6.78;;;24.50;1.00;;;;;;5074385;28;20202;-81
2023/10/13 14:24:35;;;;;;;13.95;6.57;;;24.50;1.00;;;;;;5055460;28;20210;-82
2023/10/13 14:27:15;;;;;;;14.15;6.13;;;24.20;1.00;;;;;;5064161;28;20218;-79
2023/10/13 14:29:44;;;;;;;12.20;6.90;;;24.10;1.00;;;;;;5060196;28;20202;-79
2023/10/13 14:32:13;;;;;;;16.05;6.85;;;24.10;1.00;;;;;;5069683;28;20202;-79
2023/10/13 14:34:41;;;;;;;18.13;7.05;;;24.00;1.00;;;;;;5060745;28;20198;-82
2023/10/13 14:37:12;;;;;;;12.30;5.90;;;23.90;1.00;;;;;;5081582;28;20241;-82
2023/10/13 14:39:40;;;;;;;12.80;5.40;;;23.90;1.00;;;;;;5077245;28;20214;-82
2023/10/13 14:42:08;;;;;;;16.75;6.35;;;23.70;1.00;;;;;;5082670;28;20202;-81
2023/10/13 14:44:37;;;;;;;16.13;6.80;;;23.80;1.00;;;;;;5063583;28;20202;-80
2023/10/13 14:47:05;;;;;;;11.60;6.45;;;23.70;1.00;;;;;;5061182;28;20222;-81
2023/10/13 14:49:35;;;;;;;12.32;5.28;;;23.60;1.00;;;;;;5075426;28;20213;-78
2023/10/13 14:52:02;;;;;;;16.08;5.97;;;23.60;1.00;;;;;;5053224;28;20210;-78
2023/10/13 14:54:35;;;;;;;11.23;5.60;;;23.60;1.00;;;;;;5050643;28;20206;-78
2023/10/13 14:57:04;;;;;;;19.38;6.65;;;23.50;1.00;;;;;;5070335;28;20239;-78
2023/10/13 14:59:38;;;;;;;14.27;6.35;;;23.50;1.00;;;;;;5054725;28;20205;-78
2023/10/13 15:02:05;;;;;;;13.45;6.32;;;23.40;1.00;;;;;;5053177;28;20189;-78
2023/10/13 15:04:33;;;;;;;16.83;7.05;;;23.40;1.00;;;;;;5057234;28;20202;-79
2023/10/13 15:07:02;;;;;;;14.27;6.50;;;23.40;1.00;;;;;;5055458;28;20226;-78
2023/10/13 15:09:29;;;;;;;12.18;6.45;;;23.30;1.00;;;;;;5057080;28;20232;-80
2023/10/13 15:11:57;;;;;;;12.48;6.07;;;23.30;1.00;;;;;;5056947;28;20207;-80
2023/10/13 15:14:25;;;;;;;16.67;6.68;;;23.20;1.00;;;;;;5056995;28;20209;-77
2023/10/13 15:16:55;;;;;;;12.63;6.78;;;23.20;1.00;;;;;;5064221;28;20225;-78
2023/10/13 15:19:24;;;;;;;13.82;5.70;;;23.10;1.00;;;;;;5050648;28;20207;-78
2023/10/13 15:21:52;;;;;;;12.13;5.78;;;23.10;1.00;;;;;;5052292;28;20213;-78